Time;durP1;ratioP1;P1;durP2;ratioP2;P2;SDS_P1;SDS_P2;PMS_P1;PMS_P2;Temp;Humidity;BMP_temperature;BMP_pressure;BME280_temperature;BME280_humidity;BME280_pressure;Samples;Min_cycle;Max_cycle;Signal;HPM_P1;HPM_P2
2022/01/14 00:01:56;;;;;;;21.73;12.57;;;2.50;88.60;;;;;;4922342;29;20499;-48
2022/01/14 00:04:23;;;;;;;28.67;13.17;;;2.50;89.00;;;;;;4926298;29;20820;-47
2022/01/14 00:06:50;;;;;;;22.03;13.23;;;2.50;88.80;;;;;;4916829;29;20468;-48
2022/01/14 00:09:18;;;;;;;34.03;13.80;;;2.50;89.10;;;;;;4908663;29;20957;-47
2022/01/14 00:11:50;;;;;;;23.97;14.17;;;2.50;89.10;;;;;;4920626;29;20464;-48
2022/01/14 00:16:51;;;;;;;23.27;13.33;;;2.50;88.80;;;;;;4919588;29;20560;-49
2022/01/14 00:19:18;;;;;;;24.83;12.07;;;2.50;88.70;;;;;;4924586;29;20503;-47
2022/01/14 00:21:46;;;;;;;24.00;12.60;;;2.50;89.10;;;;;;4926919;29;20495;-48
2022/01/14 00:24:25;;;;;;;30.53;13.30;;;2.50;89.10;;;;;;4922169;29;20588;-48
2022/01/14 00:33:25;;;;;;;25.60;13.27;;;2.50;89.30;;;;;;4928333;29;20547;-48
2022/01/14 00:35:20;;;;;;;20.00;11.80;;;2.50;89.40;;;;;;4917977;29;20459;-48
2022/01/14 00:37:47;;;;;;;33.40;12.93;;;2.50;88.60;;;;;;4926035;29;20963;-48
2022/01/14 00:40:14;;;;;;;43.20;14.00;;;2.50;88.60;;;;;;4924718;29;20463;-48
2022/01/14 00:42:41;;;;;;;23.33;12.13;;;2.50;88.90;;;;;;4923705;29;20491;-48
2022/01/14 00:45:10;;;;;;;28.23;13.23;;;2.40;88.80;;;;;;4920846;29;20544;-48
2022/01/14 00:47:39;;;;;;;26.93;13.30;;;2.40;89.30;;;;;;4921805;29;20816;-48
2022/01/14 00:50:08;;;;;;;25.03;12.00;;;2.40;89.60;;;;;;4917309;29;20459;-47
2022/01/14 00:52:36;;;;;;;22.70;12.33;;;2.40;89.70;;;;;;4922068;29;20476;-48
2022/01/14 00:55:04;;;;;;;25.73;12.37;;;2.40;89.70;;;;;;4925526;29;20543;-48
2022/01/14 01:00:17;;;;;;;25.03;11.83;;;2.40;89.80;;;;;;4921654;29;20460;-48
2022/01/14 01:02:44;;;;;;;26.77;12.23;;;2.40;89.80;;;;;;4922192;29;20483;-48
2022/01/14 01:05:15;;;;;;;22.87;13.00;;;2.40;89.70;;;;;;4922027;29;20882;-48
2022/01/14 01:07:43;;;;;;;17.00;10.83;;;2.30;89.70;;;;;;4917408;29;20465;-48
2022/01/14 01:10:11;;;;;;;18.83;11.63;;;2.40;89.80;;;;;;4910402;29;20464;-47
2022/01/14 01:12:52;;;;;;;26.03;12.40;;;2.40;89.80;;;;;;4922451;29;20478;-47
2022/01/14 01:15:20;;;;;;;28.13;12.67;;;2.40;89.60;;;;;;4909972;29;20463;-47
2022/01/14 01:17:49;;;;;;;22.10;10.27;;;2.40;89.00;;;;;;4927221;29;20484;-47
2022/01/14 01:20:21;;;;;;;16.57;9.83;;;2.40;88.80;;;;;;4920535;29;20479;-47
2022/01/14 01:22:53;;;;;;;20.50;11.53;;;2.40;88.70;;;;;;4923992;29;20491;-47
2022/01/14 01:25:25;;;;;;;15.17;9.67;;;2.40;88.90;;;;;;4921371;29;20456;-47
2022/01/14 01:27:54;;;;;;;21.63;10.90;;;2.30;89.20;;;;;;4920947;29;20467;-47
2022/01/14 01:33:00;;;;;;;28.07;12.43;;;2.30;89.20;;;;;;4929548;29;20952;-47
2022/01/14 01:35:28;;;;;;;23.40;12.07;;;2.30;89.00;;;;;;4926974;29;20468;-47
2022/01/14 01:37:54;;;;;;;20.60;12.37;;;2.30;88.90;;;;;;4922113;29;20462;-47
2022/01/14 01:40:22;;;;;;;23.50;12.33;;;2.30;89.10;;;;;;4925421;29;20467;-48
2022/01/14 01:42:50;;;;;;;16.33;9.67;;;2.30;89.10;;;;;;4914192;29;20728;-48
2022/01/14 01:45:22;;;;;;;19.30;9.50;;;2.30;89.30;;;;;;4924461;29;21208;-47
2022/01/14 01:47:50;;;;;;;19.00;9.80;;;2.30;89.20;;;;;;4926273;29;20976;-47
2022/01/14 01:50:24;;;;;;;20.00;9.63;;;2.30;89.10;;;;;;4921582;29;20463;-47
2022/01/14 01:52:52;;;;;;;21.27;12.07;;;2.40;88.70;;;;;;4926268;29;20463;-47
2022/01/14 01:55:20;;;;;;;26.03;11.53;;;2.40;88.40;;;;;;4921146;29;20470;-48
2022/01/14 01:57:48;;;;;;;17.87;10.40;;;2.30;88.10;;;;;;4920416;29;20476;-47
2022/01/14 02:00:18;;;;;;;15.33;10.10;;;2.30;88.10;;;;;;4910331;29;20464;-47
2022/01/14 02:02:48;;;;;;;14.13;8.50;;;2.20;88.50;;;;;;4927249;29;20488;-48
2022/01/14 02:05:16;;;;;;;17.33;10.20;;;2.30;88.60;;;;;;4921561;29;20475;-47
2022/01/14 02:07:43;;;;;;;16.60;9.17;;;2.20;88.60;;;;;;4911994;29;20532;-47
2022/01/14 02:10:11;;;;;;;17.40;11.03;;;2.20;88.60;;;;;;4925525;29;20987;-47
2022/01/14 02:12:46;;;;;;;18.13;10.73;;;2.20;88.80;;;;;;4925707;29;20570;-47
2022/01/14 02:23:25;;;;;;;13.63;8.80;;;2.10;88.40;;;;;;4925150;29;20499;-48
2022/01/14 02:25:52;;;;;;;12.50;9.60;;;2.10;88.20;;;;;;4925814;29;21039;-48
2022/01/14 02:28:20;;;;;;;16.00;9.10;;;2.20;88.20;;;;;;4912707;29;20467;-48
2022/01/14 02:30:48;;;;;;;20.17;9.30;;;2.10;88.30;;;;;;4914024;29;20447;-47
2022/01/14 02:33:17;;;;;;;21.90;8.93;;;2.20;88.20;;;;;;4926683;29;20467;-48
2022/01/14 02:35:48;;;;;;;14.73;8.60;;;2.20;88.00;;;;;;4924004;29;20551;-47
2022/01/14 02:38:16;;;;;;;13.93;7.90;;;2.10;88.30;;;;;;4927841;29;20476;-48
2022/01/14 02:40:44;;;;;;;15.90;9.27;;;2.10;88.50;;;;;;4915695;29;20953;-48
2022/01/14 02:43:16;;;;;;;16.47;9.70;;;2.20;88.30;;;;;;4925643;29;20488;-48
2022/01/14 02:45:51;;;;;;;15.40;9.50;;;2.10;88.50;;;;;;4925260;29;20455;-47
2022/01/14 02:48:25;;;;;;;16.40;8.87;;;2.10;88.60;;;;;;4926041;29;20776;-48
2022/01/14 02:56:19;;;;;;;17.03;10.30;;;2.10;88.70;;;;;;4924497;29;20921;-47
2022/01/14 02:58:47;;;;;;;20.77;9.93;;;2.10;88.70;;;;;;4924379;29;20453;-48
2022/01/14 03:01:22;;;;;;;22.10;9.60;;;2.20;88.60;;;;;;4923940;29;20468;-47
2022/01/14 03:03:54;;;;;;;15.63;9.10;;;2.20;88.50;;;;;;4935574;29;20492;-48
2022/01/14 03:06:21;;;;;;;16.70;9.30;;;2.20;88.40;;;;;;4925303;29;20460;-47
2022/01/14 03:08:48;;;;;;;16.20;9.10;;;2.10;88.50;;;;;;4921954;29;20519;-48
2022/01/14 03:11:37;;;;;;;22.27;10.80;;;2.10;88.90;;;;;;4927707;29;20507;-47
2022/01/14 03:14:04;;;;;;;24.63;9.97;;;2.20;88.60;;;;;;4922430;29;20481;-47
2022/01/14 03:16:38;;;;;;;13.83;8.43;;;2.20;87.30;;;;;;4909027;29;20551;-48
2022/01/14 03:19:06;;;;;;;16.40;10.27;;;2.10;87.20;;;;;;4939240;29;20490;-47
2022/01/14 03:21:39;;;;;;;18.40;9.67;;;2.00;88.50;;;;;;4923585;29;20466;-47
2022/01/14 03:26:46;;;;;;;17.33;9.03;;;2.00;89.10;;;;;;4923490;29;20468;-48
2022/01/14 03:29:14;;;;;;;20.80;10.17;;;2.00;89.00;;;;;;4922965;29;20950;-48
2022/01/14 03:31:42;;;;;;;31.87;10.80;;;2.00;89.00;;;;;;4925074;29;20464;-47
2022/01/14 03:34:08;;;;;;;15.37;8.70;;;2.00;89.00;;;;;;4927228;29;20456;-49
2022/01/14 03:36:35;;;;;;;19.17;11.07;;;2.00;89.00;;;;;;4928107;29;20471;-49
2022/01/14 03:39:04;;;;;;;19.73;8.77;;;2.00;89.10;;;;;;4924571;29;20840;-50
2022/01/14 03:41:31;;;;;;;15.00;8.90;;;2.00;89.00;;;;;;4925155;29;20898;-49
2022/01/14 03:43:58;;;;;;;29.37;9.30;;;2.00;89.10;;;;;;4926343;29;20484;-49
2022/01/14 03:46:25;;;;;;;20.20;10.70;;;2.10;88.80;;;;;;4944585;28;20452;-48
2022/01/14 03:48:52;;;;;;;11.63;7.67;;;2.00;88.60;;;;;;4915821;29;24039;-49
2022/01/14 03:51:20;;;;;;;16.77;9.43;;;2.00;88.90;;;;;;4924416;29;20468;-51
2022/01/14 03:53:48;;;;;;;16.90;11.23;;;2.00;89.10;;;;;;4923200;29;20462;-49
2022/01/14 03:56:15;;;;;;;24.43;9.20;;;2.00;89.20;;;;;;4925749;29;20972;-49
2022/01/14 03:58:43;;;;;;;22.40;9.13;;;2.00;89.20;;;;;;4938894;29;20851;-50
2022/01/14 04:01:12;;;;;;;18.00;8.50;;;2.00;89.00;;;;;;4923363;29;20999;-49
2022/01/14 04:03:40;;;;;;;16.57;8.27;;;2.00;88.90;;;;;;4922595;29;20850;-49
2022/01/14 04:06:07;;;;;;;15.30;8.30;;;2.10;88.70;;;;;;4925910;29;20836;-49
2022/01/14 04:08:34;;;;;;;13.73;8.70;;;2.10;88.80;;;;;;4908240;29;20460;-49
2022/01/14 04:11:02;;;;;;;27.57;9.00;;;2.00;88.90;;;;;;4923974;29;20896;-50
2022/01/14 04:16:04;;;;;;;17.10;8.40;;;2.10;88.50;;;;;;4919544;29;20468;-49
2022/01/14 04:18:31;;;;;;;15.93;7.73;;;2.00;88.40;;;;;;4922881;29;20847;-50
2022/01/14 04:20:58;;;;;;;39.30;10.63;;;2.00;88.80;;;;;;4926291;29;20457;-50
2022/01/14 04:23:25;;;;;;;14.67;9.00;;;2.00;88.70;;;;;;4925277;29;20496;-49
2022/01/14 04:25:56;;;;;;;18.50;8.43;;;2.00;88.60;;;;;;4923976;29;20467;-49
2022/01/14 04:28:25;;;;;;;18.00;8.60;;;2.00;88.70;;;;;;4908077;29;20951;-49
2022/01/14 04:30:54;;;;;;;16.83;8.67;;;2.00;88.80;;;;;;4925677;29;20453;-50
2022/01/14 04:33:23;;;;;;;26.43;9.40;;;2.00;88.90;;;;;;4922253;29;20460;-49
2022/01/14 04:35:50;;;;;;;25.70;9.23;;;2.00;88.80;;;;;;4923494;29;21040;-50
2022/01/14 04:38:17;;;;;;;23.73;8.57;;;2.00;88.30;;;;;;4926268;29;20459;-49
2022/01/14 04:40:44;;;;;;;21.10;9.30;;;2.00;88.30;;;;;;4907703;29;20457;-50
2022/01/14 04:43:12;;;;;;;26.53;8.80;;;1.90;87.80;;;;;;4926782;29;20488;-49
2022/01/14 04:45:43;;;;;;;15.40;8.20;;;1.80;88.40;;;;;;4923397;29;20464;-50
2022/01/14 04:48:11;;;;;;;12.70;7.13;;;1.70;88.80;;;;;;4923701;29;21067;-50
2022/01/14 04:50:39;;;;;;;14.20;6.90;;;1.70;89.20;;;;;;4922415;29;20802;-49
2022/01/14 04:53:09;;;;;;;17.40;8.13;;;1.70;89.20;;;;;;4915139;29;20843;-50
2022/01/14 04:55:36;;;;;;;14.90;8.87;;;1.80;88.90;;;;;;4924195;29;20476;-49
2022/01/14 04:58:04;;;;;;;12.00;6.00;;;1.80;89.10;;;;;;4913320;29;20498;-49
2022/01/14 05:00:32;;;;;;;10.20;7.80;;;1.80;88.80;;;;;;4918271;29;20463;-50
2022/01/14 05:02:59;;;;;;;9.40;6.23;;;1.70;88.80;;;;;;4919448;29;20528;-50
2022/01/14 05:05:29;;;;;;;16.77;7.63;;;1.70;89.00;;;;;;4921615;29;20546;-51
2022/01/14 05:07:57;;;;;;;10.87;6.87;;;1.70;88.70;;;;;;4923431;29;20821;-50
2022/01/14 05:12:51;;;;;;;12.67;6.97;;;1.70;88.50;;;;;;4923767;29;20462;-50
2022/01/14 05:15:19;;;;;;;12.10;6.70;;;1.70;88.50;;;;;;4912383;29;20460;-49
2022/01/14 05:17:48;;;;;;;9.07;7.20;;;1.70;88.30;;;;;;4922808;29;20460;-50
2022/01/14 05:20:16;;;;;;;12.07;6.60;;;1.70;88.30;;;;;;4914239;29;20830;-50
2022/01/14 05:22:45;;;;;;;10.23;6.70;;;1.70;88.20;;;;;;4921065;29;20502;-50
2022/01/14 05:25:14;;;;;;;14.23;7.10;;;1.70;87.90;;;;;;4923554;29;20871;-50
2022/01/14 05:27:43;;;;;;;8.13;5.90;;;1.70;87.90;;;;;;4926346;29;20453;-50
2022/01/14 05:30:12;;;;;;;11.73;5.93;;;1.70;88.10;;;;;;4906786;29;20464;-49
2022/01/14 05:32:47;;;;;;;10.20;7.07;;;1.70;87.90;;;;;;4912049;29;20499;-50
2022/01/14 05:35:19;;;;;;;9.23;7.10;;;1.70;88.00;;;;;;4922809;29;20518;-50
2022/01/14 05:37:46;;;;;;;21.97;7.57;;;1.70;87.60;;;;;;4922798;29;20467;-51
2022/01/14 05:40:15;;;;;;;8.87;6.30;;;1.70;86.30;;;;;;4924359;29;20459;-52
2022/01/14 05:42:43;;;;;;;13.47;7.57;;;1.60;86.10;;;;;;4923215;29;20613;-52
2022/01/14 05:45:11;;;;;;;18.30;8.57;;;1.50;87.00;;;;;;4922682;29;20459;-52
2022/01/14 05:47:39;;;;;;;22.73;12.40;;;1.50;87.30;;;;;;4924156;29;20460;-52
2022/01/14 05:50:25;;;;;;;10.80;7.60;;;1.50;87.50;;;;;;4927380;29;20500;-51
2022/01/14 05:52:52;;;;;;;8.37;6.57;;;1.50;87.00;;;;;;4910280;29;20497;-51
2022/01/14 05:55:21;;;;;;;12.37;7.83;;;1.40;87.30;;;;;;4911074;29;20469;-51
2022/01/14 05:57:48;;;;;;;10.47;6.90;;;1.40;87.90;;;;;;4938554;29;20471;-51
2022/01/14 06:00:18;;;;;;;10.27;6.00;;;1.40;86.30;;;;;;4907548;29;21017;-51
2022/01/14 06:02:46;;;;;;;12.30;7.93;;;1.30;87.10;;;;;;4924291;29;20506;-51
2022/01/14 06:05:13;;;;;;;8.70;6.33;;;1.30;87.90;;;;;;4919991;29;20453;-51
2022/01/14 06:07:41;;;;;;;9.77;6.53;;;1.30;87.90;;;;;;4925452;29;20468;-51
2022/01/14 06:10:08;;;;;;;9.10;6.43;;;1.30;87.90;;;;;;4920392;29;20813;-51
2022/01/14 06:12:35;;;;;;;11.50;7.30;;;1.30;88.10;;;;;;4924925;29;20495;-51
2022/01/14 06:15:04;;;;;;;16.50;7.63;;;1.40;88.00;;;;;;4923958;29;20508;-51
2022/01/14 06:17:31;;;;;;;10.30;6.60;;;1.40;87.60;;;;;;4926796;29;20460;-51
2022/01/14 06:19:58;;;;;;;8.40;5.97;;;1.40;87.00;;;;;;4924604;29;20460;-52
2022/01/14 06:22:24;;;;;;;9.73;5.90;;;1.40;87.40;;;;;;4919514;29;20456;-52
2022/01/14 06:24:51;;;;;;;11.87;6.63;;;1.30;87.60;;;;;;4922101;29;20479;-52
2022/01/14 06:27:18;;;;;;;9.23;7.37;;;1.30;87.70;;;;;;4921178;29;20547;-51
2022/01/14 06:29:47;;;;;;;6.63;5.43;;;1.30;87.70;;;;;;4920257;29;20885;-51
2022/01/14 06:32:14;;;;;;;7.90;5.57;;;1.30;87.50;;;;;;4921386;29;20495;-52
2022/01/14 06:34:41;;;;;;;7.90;6.03;;;1.30;87.20;;;;;;4929879;29;20456;-51
2022/01/14 06:37:07;;;;;;;8.07;5.80;;;1.30;87.20;;;;;;4922591;29;20457;-50
2022/01/14 06:39:34;;;;;;;7.27;5.37;;;1.30;87.40;;;;;;4912001;29;20461;-50
2022/01/14 06:42:02;;;;;;;9.73;6.77;;;1.30;86.60;;;;;;4923310;29;20453;-51
2022/01/14 06:44:29;;;;;;;9.27;6.00;;;1.30;86.90;;;;;;4923346;29;20495;-51
2022/01/14 06:46:56;;;;;;;9.47;6.33;;;1.30;86.90;;;;;;4923700;29;20452;-52
2022/01/14 06:49:22;;;;;;;7.97;5.50;;;1.20;87.10;;;;;;4909122;29;20461;-51
2022/01/14 06:51:49;;;;;;;5.47;4.77;;;1.30;87.00;;;;;;4919597;29;20465;-52
2022/01/14 06:54:16;;;;;;;7.27;5.50;;;1.30;86.90;;;;;;4922136;29;20468;-51
2022/01/14 06:56:43;;;;;;;9.00;6.07;;;1.30;87.10;;;;;;4921376;29;20460;-51
2022/01/14 06:59:11;;;;;;;9.37;6.53;;;1.30;86.60;;;;;;4923182;29;20475;-52
2022/01/14 07:01:38;;;;;;;8.53;6.10;;;1.30;86.80;;;;;;4916906;29;21371;-51
2022/01/14 07:04:06;;;;;;;7.03;5.90;;;1.30;87.10;;;;;;4918586;29;20487;-51
2022/01/14 07:06:32;;;;;;;11.00;5.43;;;1.30;87.10;;;;;;4920887;29;20490;-51
2022/01/14 07:08:59;;;;;;;8.57;5.70;;;1.30;86.90;;;;;;4926193;29;20471;-51
2022/01/14 07:11:30;;;;;;;7.43;5.90;;;1.30;86.90;;;;;;4924828;29;20507;-52
2022/01/14 07:14:07;;;;;;;9.07;5.93;;;1.30;87.00;;;;;;4929909;29;21056;-51
2022/01/14 07:16:34;;;;;;;5.53;4.10;;;1.30;86.40;;;;;;4926000;29;20796;-51
2022/01/14 07:19:03;;;;;;;10.83;5.83;;;1.20;86.00;;;;;;4924179;29;20468;-52
2022/01/14 07:21:33;;;;;;;9.30;4.63;;;1.10;86.80;;;;;;4921455;29;20532;-51
2022/01/14 07:24:00;;;;;;;9.20;5.97;;;1.10;86.40;;;;;;4911916;29;20583;-51
2022/01/14 07:26:27;;;;;;;7.50;5.67;;;1.00;86.80;;;;;;4930420;29;20463;-51
2022/01/14 07:28:53;;;;;;;7.00;5.40;;;1.00;87.20;;;;;;4925101;29;21103;-51
2022/01/14 07:31:20;;;;;;;9.77;6.03;;;0.90;87.30;;;;;;4926391;29;20458;-51
2022/01/14 07:33:57;;;;;;;7.97;5.13;;;1.00;87.90;;;;;;4924342;29;20847;-51
2022/01/14 07:36:24;;;;;;;7.57;5.00;;;1.00;87.90;;;;;;4927418;29;20528;-51
2022/01/14 07:38:50;;;;;;;9.90;5.43;;;1.00;88.00;;;;;;4926863;29;20461;-51
2022/01/14 07:41:17;;;;;;;7.90;5.67;;;1.00;88.20;;;;;;4923005;29;20467;-51
2022/01/14 07:43:47;;;;;;;8.30;5.30;;;1.10;87.90;;;;;;4922940;29;20592;-50
2022/01/14 07:46:15;;;;;;;6.60;5.90;;;1.10;88.00;;;;;;4924151;29;20476;-51
2022/01/14 07:48:45;;;;;;;11.57;6.00;;;1.20;88.00;;;;;;4922298;29;20487;-51
2022/01/14 07:51:12;;;;;;;13.40;7.23;;;1.20;87.90;;;;;;4921206;29;20540;-50
2022/01/14 07:53:40;;;;;;;10.20;5.53;;;1.20;88.00;;;;;;4925153;29;20461;-51
2022/01/14 07:56:11;;;;;;;12.70;6.90;;;1.20;87.80;;;;;;4923811;29;20464;-51
2022/01/14 07:58:40;;;;;;;15.57;6.17;;;1.20;87.90;;;;;;4924850;29;20480;-50
2022/01/14 08:01:08;;;;;;;20.03;7.80;;;1.30;87.90;;;;;;4939622;28;20479;-51
2022/01/14 08:03:35;;;;;;;16.07;6.50;;;1.20;88.00;;;;;;4911620;29;20507;-51
2022/01/14 08:06:04;;;;;;;8.50;5.73;;;1.20;88.00;;;;;;4924620;29;20539;-52
2022/01/14 08:08:31;;;;;;;15.77;6.73;;;1.20;87.10;;;;;;4924476;29;20464;-52
2022/01/14 08:10:58;;;;;;;10.80;6.77;;;1.30;87.50;;;;;;4923277;29;20441;-52
2022/01/14 08:13:25;;;;;;;10.00;6.33;;;1.20;87.70;;;;;;4920837;29;20969;-52
2022/01/14 08:15:52;;;;;;;18.23;7.43;;;1.20;88.00;;;;;;4920161;29;20456;-52
2022/01/14 08:18:19;;;;;;;10.30;7.50;;;1.30;88.20;;;;;;4923951;29;20461;-52
2022/01/14 08:20:46;;;;;;;16.90;7.87;;;1.30;87.80;;;;;;4927300;29;20948;-51
2022/01/14 08:23:13;;;;;;;14.93;7.33;;;1.30;87.80;;;;;;4937908;28;20504;-52
2022/01/14 08:25:39;;;;;;;14.53;6.63;;;1.30;87.00;;;;;;4921461;29;20478;-51
2022/01/14 08:28:06;;;;;;;16.40;7.97;;;1.30;87.40;;;;;;4924030;29;20471;-51
2022/01/14 08:30:34;;;;;;;12.47;7.57;;;1.30;87.90;;;;;;4929302;29;20463;-51
2022/01/14 08:33:01;;;;;;;12.90;7.37;;;1.30;87.90;;;;;;4925789;29;20465;-51
2022/01/14 08:35:29;;;;;;;21.97;9.23;;;1.30;88.00;;;;;;4929567;29;20456;-51
2022/01/14 08:37:56;;;;;;;18.47;6.70;;;1.30;87.50;;;;;;4925092;29;20475;-51
2022/01/14 08:40:23;;;;;;;10.40;5.93;;;1.30;87.50;;;;;;4929516;29;20468;-51
2022/01/14 08:42:53;;;;;;;15.53;7.40;;;1.30;87.60;;;;;;4923353;29;20982;-52
2022/01/14 08:45:21;;;;;;;15.00;6.60;;;1.30;87.80;;;;;;4922813;29;20488;-51
2022/01/14 08:47:53;;;;;;;18.93;7.27;;;1.30;87.50;;;;;;4913524;29;20957;-51
2022/01/14 08:50:29;;;;;;;12.03;6.33;;;1.30;86.60;;;;;;4938421;28;20550;-51
2022/01/14 08:53:08;;;;;;;11.63;7.07;;;1.20;87.30;;;;;;4924483;29;20471;-50
2022/01/14 08:55:36;;;;;;;9.30;6.87;;;1.20;87.70;;;;;;4923879;29;20464;-51
2022/01/14 08:58:07;;;;;;;8.20;5.77;;;1.20;88.00;;;;;;4923835;29;20888;-50
2022/01/14 09:00:34;;;;;;;10.87;6.87;;;1.30;87.60;;;;;;4929987;29;20559;-50
2022/01/14 09:03:03;;;;;;;13.80;6.03;;;1.30;87.80;;;;;;4923761;29;21518;-51
2022/01/14 09:05:31;;;;;;;10.53;6.57;;;1.30;87.70;;;;;;4937520;28;20484;-51
2022/01/14 09:07:59;;;;;;;17.10;8.40;;;1.30;87.60;;;;;;4922523;29;20457;-50
2022/01/14 09:10:26;;;;;;;16.23;7.67;;;1.40;87.10;;;;;;4924703;29;20500;-51
2022/01/14 09:12:53;;;;;;;9.37;6.83;;;1.30;86.10;;;;;;4924699;29;20464;-51
2022/01/14 09:15:20;;;;;;;11.03;8.00;;;1.30;86.50;;;;;;4925123;29;20468;-51
2022/01/14 09:17:47;;;;;;;13.40;8.40;;;1.20;87.30;;;;;;4925926;29;20993;-51
2022/01/14 09:20:14;;;;;;;9.83;6.93;;;1.20;87.70;;;;;;4917663;29;20471;-51
2022/01/14 09:22:47;;;;;;;10.80;6.97;;;1.20;87.70;;;;;;4925215;29;20484;-52
2022/01/14 09:25:16;;;;;;;9.10;7.00;;;1.30;87.90;;;;;;4925198;29;20487;-51
2022/01/14 09:27:44;;;;;;;9.30;6.57;;;1.30;87.40;;;;;;4923648;29;20468;-52
2022/01/14 09:30:11;;;;;;;12.67;7.30;;;1.30;87.50;;;;;;4924924;29;20460;-51
2022/01/14 09:32:38;;;;;;;15.63;7.70;;;1.30;87.60;;;;;;4912964;29;20547;-51
2022/01/14 09:35:07;;;;;;;11.47;8.30;;;1.30;87.40;;;;;;4921890;29;20457;-52
2022/01/14 09:37:35;;;;;;;10.53;7.27;;;1.30;87.90;;;;;;4938804;29;20532;-52
2022/01/14 09:40:03;;;;;;;7.80;6.33;;;1.30;88.00;;;;;;4921157;29;21048;-52
2022/01/14 09:42:30;;;;;;;10.73;6.97;;;1.40;87.80;;;;;;4925333;29;20564;-51
2022/01/14 09:44:58;;;;;;;10.60;7.23;;;1.40;87.80;;;;;;4915160;29;20485;-51
2022/01/14 09:47:25;;;;;;;13.13;7.70;;;1.50;87.60;;;;;;4926106;29;20967;-51
2022/01/14 09:49:52;;;;;;;11.97;7.20;;;1.50;87.30;;;;;;4923548;29;20460;-51
2022/01/14 09:52:19;;;;;;;9.10;6.17;;;1.60;86.90;;;;;;4920849;29;20468;-50
2022/01/14 09:54:51;;;;;;;12.93;7.50;;;1.70;86.60;;;;;;4920221;29;20478;-51
2022/01/14 09:57:18;;;;;;;8.87;6.47;;;1.70;86.50;;;;;;4920322;29;20557;-51
2022/01/14 09:59:46;;;;;;;9.47;6.33;;;1.60;86.90;;;;;;4922732;29;20469;-51
2022/01/14 10:02:34;;;;;;;10.93;6.10;;;1.60;87.20;;;;;;4910724;29;20460;-52
2022/01/14 10:05:03;;;;;;;11.87;7.20;;;1.70;87.10;;;;;;4925008;29;20494;-51
2022/01/14 10:07:32;;;;;;;11.93;6.60;;;1.70;86.60;;;;;;4926456;29;20485;-51
2022/01/14 10:10:00;;;;;;;10.03;6.80;;;1.80;86.50;;;;;;4923176;29;20460;-52
2022/01/14 10:12:33;;;;;;;11.67;7.43;;;1.80;86.40;;;;;;4925183;29;20456;-51
2022/01/14 10:15:10;;;;;;;8.17;5.77;;;1.80;86.50;;;;;;4919356;29;20728;-51
2022/01/14 10:17:43;;;;;;;9.67;6.93;;;1.80;86.40;;;;;;4924929;29;20475;-52
2022/01/14 10:20:17;;;;;;;7.80;5.50;;;1.80;86.20;;;;;;4921572;29;21008;-51
2022/01/14 10:22:46;;;;;;;6.33;5.73;;;1.80;86.20;;;;;;4918083;29;20566;-51
2022/01/14 10:25:20;;;;;;;10.70;7.60;;;1.80;86.00;;;;;;4920462;29;20488;-51
2022/01/14 10:27:53;;;;;;;10.00;6.53;;;1.90;85.50;;;;;;4924872;29;20464;-47
2022/01/14 10:30:28;;;;;;;12.80;8.67;;;1.80;85.90;;;;;;4910801;29;20459;-47
2022/01/14 10:33:08;;;;;;;12.23;8.70;;;1.80;86.10;;;;;;4922458;29;20466;-46
2022/01/14 10:35:41;;;;;;;14.77;10.10;;;1.80;86.10;;;;;;4938183;28;20460;-46
2022/01/14 10:38:22;;;;;;;13.07;9.73;;;1.90;86.00;;;;;;4924085;29;20464;-47
2022/01/14 10:40:56;;;;;;;9.17;7.43;;;2.00;86.00;;;;;;4922449;29;20464;-47
2022/01/14 10:43:31;;;;;;;11.37;7.07;;;2.00;86.00;;;;;;4921672;29;20468;-47
2022/01/14 10:45:59;;;;;;;22.27;13.93;;;2.00;85.80;;;;;;4925970;29;20496;-47
2022/01/14 10:48:32;;;;;;;11.13;6.97;;;2.00;85.80;;;;;;4925060;29;20453;-47
2022/01/14 10:51:07;;;;;;;14.13;8.07;;;2.10;85.70;;;;;;4928397;29;20460;-47
2022/01/14 10:53:39;;;;;;;11.23;8.77;;;2.10;85.50;;;;;;4928352;29;20490;-47
2022/01/14 10:56:17;;;;;;;11.70;8.77;;;2.20;85.40;;;;;;4927730;29;20468;-47
2022/01/14 10:58:46;;;;;;;10.23;8.17;;;2.20;85.40;;;;;;4925935;29;20828;-48
2022/01/14 11:01:23;;;;;;;13.60;8.77;;;2.20;85.60;;;;;;4926803;29;20448;-46
2022/01/14 11:03:52;;;;;;;14.13;9.40;;;2.20;85.20;;;;;;4929764;29;20451;-46
2022/01/14 11:06:39;;;;;;;19.43;9.40;;;2.20;85.50;;;;;;4925565;29;20456;-47
2022/01/14 11:09:11;;;;;;;13.80;8.60;;;2.30;84.90;;;;;;4926438;29;20440;-46
2022/01/14 11:11:43;;;;;;;13.97;9.80;;;2.20;85.10;;;;;;4925489;29;20523;-47
2022/01/14 11:14:10;;;;;;;17.83;9.63;;;2.20;85.40;;;;;;4927230;29;20977;-47
2022/01/14 11:16:38;;;;;;;12.43;8.77;;;2.20;85.50;;;;;;4941967;28;20468;-47
2022/01/14 11:19:08;;;;;;;11.20;8.47;;;2.30;85.40;;;;;;4925710;29;20555;-47
2022/01/14 11:24:24;;;;;;;12.47;9.03;;;2.30;85.60;;;;;;4923446;29;20895;-48
2022/01/14 11:27:09;;;;;;;15.23;11.47;;;2.30;85.30;;;;;;4925339;29;20681;-47
2022/01/14 11:29:44;;;;;;;13.30;8.60;;;2.30;85.30;;;;;;4928028;29;20479;-47
2022/01/14 11:32:11;;;;;;;13.20;9.30;;;2.30;85.50;;;;;;4924526;29;20544;-47
2022/01/14 11:34:45;;;;;;;11.90;8.90;;;2.30;85.60;;;;;;4922932;29;20456;-47
2022/01/14 11:37:30;;;;;;;14.63;8.90;;;2.30;85.70;;;;;;4925093;29;20997;-46
2022/01/14 11:39:59;;;;;;;12.77;8.53;;;2.30;86.00;;;;;;4924874;29;20464;-47
2022/01/14 11:42:47;;;;;;;11.90;8.53;;;2.40;86.20;;;;;;4924542;29;20924;-47
2022/01/14 11:45:16;;;;;;;13.50;8.97;;;2.40;85.50;;;;;;4923913;29;20476;-47
2022/01/14 11:47:45;;;;;;;14.90;10.77;;;2.40;85.90;;;;;;4922924;29;20938;-47
2022/01/14 11:50:23;;;;;;;13.90;10.17;;;2.40;86.20;;;;;;4922358;29;21014;-47
2022/01/14 11:52:51;;;;;;;12.37;8.37;;;2.40;86.10;;;;;;4925245;29;20449;-47
2022/01/14 11:55:21;;;;;;;10.23;8.27;;;2.50;86.00;;;;;;4936682;28;20551;-47
2022/01/14 11:57:53;;;;;;;12.13;9.20;;;2.50;85.90;;;;;;4923835;29;21122;-47
2022/01/14 12:03:11;;;;;;;13.07;8.13;;;2.60;85.70;;;;;;4926154;29;20460;-48
2022/01/14 12:05:55;;;;;;;14.37;8.43;;;2.60;85.70;;;;;;4921753;29;20488;-48
2022/01/14 12:08:23;;;;;;;13.10;8.23;;;2.70;85.60;;;;;;4920704;29;20465;-48
2022/01/14 12:11:07;;;;;;;10.67;8.10;;;2.70;85.40;;;;;;4911818;29;20471;-48
2022/01/14 12:13:39;;;;;;;;;;;;;;;;;;;;;
2022/01/14 12:19:02;;;;;;;10.47;8.33;;;2.70;85.00;;;;;;4920253;29;20456;-48
2022/01/14 12:21:40;;;;;;;11.13;9.30;;;2.70;85.30;;;;;;4924885;29;20496;-48
2022/01/14 12:24:19;;;;;;;10.93;8.67;;;2.70;85.50;;;;;;4922041;29;20527;-47
2022/01/14 12:26:52;;;;;;;13.23;8.13;;;2.70;85.80;;;;;;4924280;29;20463;-48
2022/01/14 12:29:35;;;;;;;12.20;8.47;;;2.70;85.80;;;;;;4921533;29;21021;-48
2022/01/14 12:32:28;;;;;;;12.27;7.73;;;2.70;86.10;;;;;;4924111;29;20462;-48
2022/01/14 12:34:55;;;;;;;12.37;8.40;;;2.80;86.10;;;;;;4928441;29;20456;-48
2022/01/14 12:37:48;;;;;;;14.97;9.17;;;2.90;86.00;;;;;;4924210;29;20531;-47
2022/01/14 12:40:44;;;;;;;15.33;9.23;;;2.90;85.50;;;;;;4923441;29;20460;-48
2022/01/14 12:43:13;;;;;;;13.83;9.20;;;3.00;85.40;;;;;;4922736;29;20455;-47
2022/01/14 12:46:02;;;;;;;10.63;8.07;;;3.00;85.50;;;;;;4911575;29;20799;-46
2022/01/14 12:48:46;;;;;;;14.47;8.97;;;3.00;85.50;;;;;;4923795;29;20460;-47
2022/01/14 12:51:16;;;;;;;12.73;10.20;;;3.00;85.40;;;;;;4920437;29;20452;-47
2022/01/14 12:53:57;;;;;;;10.70;9.60;;;3.00;86.00;;;;;;4908701;29;20873;-47
2022/01/14 12:56:27;;;;;;;15.00;11.77;;;3.00;86.20;;;;;;4920783;29;20480;-47
2022/01/14 12:59:00;;;;;;;11.93;9.33;;;3.00;86.30;;;;;;4923932;29;21048;-48
2022/01/14 13:01:29;;;;;;;11.53;8.80;;;3.00;86.30;;;;;;4923628;29;20592;-48
2022/01/14 13:03:59;;;;;;;11.97;9.87;;;3.10;86.20;;;;;;4922323;29;20622;-47
2022/01/14 13:06:26;;;;;;;13.03;9.17;;;3.10;86.00;;;;;;4925495;29;20840;-47
2022/01/14 13:08:57;;;;;;;11.77;8.80;;;3.10;86.00;;;;;;4937774;28;20574;-47
2022/01/14 13:11:25;;;;;;;12.27;9.23;;;3.10;85.90;;;;;;4923557;29;20497;-47
2022/01/14 13:14:04;;;;;;;11.93;8.60;;;3.20;85.10;;;;;;4921149;29;20562;-47
2022/01/14 13:16:49;;;;;;;16.30;9.63;;;3.20;85.00;;;;;;4922203;29;20476;-47
2022/01/14 13:19:35;;;;;;;14.10;9.17;;;3.10;85.20;;;;;;4937554;28;20488;-46
2022/01/14 13:22:09;;;;;;;13.40;10.30;;;3.10;85.60;;;;;;4922524;29;20470;-47
2022/01/14 13:24:38;;;;;;;14.47;9.50;;;3.10;85.30;;;;;;4923428;29;20488;-47
2022/01/14 13:27:18;;;;;;;14.67;10.20;;;3.10;85.40;;;;;;4923078;29;20455;-48
2022/01/14 13:29:48;;;;;;;16.90;11.10;;;3.10;85.60;;;;;;4925923;29;20461;-47
2022/01/14 13:32:18;;;;;;;16.17;11.37;;;3.00;85.90;;;;;;4922899;29;20463;-48
2022/01/14 13:34:51;;;;;;;13.93;11.00;;;3.10;86.10;;;;;;4920774;29;20468;-47
2022/01/14 13:37:23;;;;;;;17.53;11.47;;;3.10;85.90;;;;;;4923647;29;20456;-48
2022/01/14 13:40:21;;;;;;;13.60;9.97;;;3.10;85.60;;;;;;4922646;29;20686;-48
2022/01/14 13:43:08;;;;;;;14.67;10.60;;;3.10;86.00;;;;;;4913423;29;20474;-49
2022/01/14 13:45:41;;;;;;;17.00;11.97;;;3.10;86.20;;;;;;4913986;29;20502;-48
2022/01/14 13:48:26;;;;;;;17.63;12.93;;;3.20;86.00;;;;;;4921438;29;20969;-48